sensor_id;sensor_type;location;lat;lon;timestamp;P1;durP1;ratioP1;P2;durP2;ratioP2
82900;SDS011;72673;50.822;3.280;2023-09-19T00:02:16;22.65;;;2.88;;
82900;SDS011;72673;50.822;3.280;2023-09-19T00:04:42;8.57;;;1.70;;
82900;SDS011;72673;50.822;3.280;2023-09-19T00:07:08;13.88;;;1.92;;
82900;SDS011;72673;50.822;3.280;2023-09-19T00:09:34;22.58;;;2.65;;
82900;SDS011;72673;50.822;3.280;2023-09-19T00:12:05;13.85;;;1.88;;
82900;SDS011;72673;50.822;3.280;2023-09-19T00:14:31;14.05;;;1.80;;
82900;SDS011;72673;50.822;3.280;2023-09-19T00:17:03;10.55;;;1.88;;
82900;SDS011;72673;50.822;3.280;2023-09-19T00:24:29;11.45;;;1.77;;
82900;SDS011;72673;50.822;3.280;2023-09-19T00:26:54;15.60;;;2.58;;
82900;SDS011;72673;50.822;3.280;2023-09-19T00:29:24;14.23;;;2.10;;
82900;SDS011;72673;50.822;3.280;2023-09-19T00:31:54;12.00;;;2.22;;
82900;SDS011;72673;50.822;3.280;2023-09-19T00:34:21;19.38;;;2.38;;
82900;SDS011;72673;50.822;3.280;2023-09-19T00:36:47;12.00;;;2.30;;
82900;SDS011;72673;50.822;3.280;2023-09-19T00:39:12;19.50;;;2.00;;
82900;SDS011;72673;50.822;3.280;2023-09-19T00:41:38;15.40;;;2.30;;
82900;SDS011;72673;50.822;3.280;2023-09-19T00:44:04;10.68;;;2.00;;
82900;SDS011;72673;50.822;3.280;2023-09-19T00:46:30;16.63;;;2.55;;
82900;SDS011;72673;50.822;3.280;2023-09-19T00:48:57;11.05;;;2.00;;
82900;SDS011;72673;50.822;3.280;2023-09-19T00:51:24;16.70;;;1.95;;
82900;SDS011;72673;50.822;3.280;2023-09-19T00:53:51;18.63;;;1.85;;
82900;SDS011;72673;50.822;3.280;2023-09-19T00:56:18;12.40;;;1.90;;
82900;SDS011;72673;50.822;3.280;2023-09-19T00:58:44;13.35;;;2.15;;
82900;SDS011;72673;50.822;3.280;2023-09-19T01:01:11;13.40;;;1.92;;
82900;SDS011;72673;50.822;3.280;2023-09-19T01:03:39;11.52;;;1.73;;
82900;SDS011;72673;50.822;3.280;2023-09-19T01:06:06;22.10;;;2.60;;
82900;SDS011;72673;50.822;3.280;2023-09-19T01:08:33;13.63;;;1.98;;
82900;SDS011;72673;50.822;3.280;2023-09-19T01:11:06;11.75;;;1.83;;
82900;SDS011;72673;50.822;3.280;2023-09-19T01:13:48;12.77;;;1.90;;
82900;SDS011;72673;50.822;3.280;2023-09-19T01:16:42;13.10;;;2.08;;
82900;SDS011;72673;50.822;3.280;2023-09-19T01:22:16;16.42;;;2.10;;
82900;SDS011;72673;50.822;3.280;2023-09-19T01:27:31;11.30;;;1.80;;
82900;SDS011;72673;50.822;3.280;2023-09-19T01:30:17;15.77;;;2.25;;
82900;SDS011;72673;50.822;3.280;2023-09-19T01:32:47;12.90;;;2.55;;
82900;SDS011;72673;50.822;3.280;2023-09-19T01:35:17;16.23;;;2.03;;
82900;SDS011;72673;50.822;3.280;2023-09-19T01:37:43;9.57;;;1.80;;
82900;SDS011;72673;50.822;3.280;2023-09-19T01:40:10;17.42;;;2.17;;
82900;SDS011;72673;50.822;3.280;2023-09-19T01:42:56;13.50;;;2.75;;
82900;SDS011;72673;50.822;3.280;2023-09-19T01:45:44;17.45;;;1.88;;
82900;SDS011;72673;50.822;3.280;2023-09-19T01:48:38;11.52;;;1.70;;
82900;SDS011;72673;50.822;3.280;2023-09-19T01:51:13;14.73;;;1.95;;
82900;SDS011;72673;50.822;3.280;2023-09-19T01:59:02;9.68;;;1.70;;
82900;SDS011;72673;50.822;3.280;2023-09-19T02:01:32;11.90;;;1.55;;
82900;SDS011;72673;50.822;3.280;2023-09-19T02:03:59;9.40;;;1.73;;
82900;SDS011;72673;50.822;3.280;2023-09-19T02:06:25;17.90;;;2.33;;
82900;SDS011;72673;50.822;3.280;2023-09-19T02:08:53;9.35;;;1.88;;
82900;SDS011;72673;50.822;3.280;2023-09-19T02:11:19;12.70;;;1.63;;
82900;SDS011;72673;50.822;3.280;2023-09-19T02:13:45;8.75;;;1.63;;
82900;SDS011;72673;50.822;3.280;2023-09-19T02:16:11;12.82;;;2.58;;
82900;SDS011;72673;50.822;3.280;2023-09-19T02:18:37;13.25;;;1.42;;
82900;SDS011;72673;50.822;3.280;2023-09-19T02:21:04;9.80;;;1.52;;
82900;SDS011;72673;50.822;3.280;2023-09-19T02:23:31;10.13;;;1.55;;
82900;SDS011;72673;50.822;3.280;2023-09-19T02:25:58;14.90;;;1.95;;
82900;SDS011;72673;50.822;3.280;2023-09-19T02:28:25;11.68;;;1.85;;
82900;SDS011;72673;50.822;3.280;2023-09-19T02:30:58;11.38;;;1.67;;
82900;SDS011;72673;50.822;3.280;2023-09-19T02:33:24;11.40;;;1.92;;
82900;SDS011;72673;50.822;3.280;2023-09-19T02:35:54;13.65;;;1.90;;
82900;SDS011;72673;50.822;3.280;2023-09-19T02:38:22;16.52;;;1.73;;
82900;SDS011;72673;50.822;3.280;2023-09-19T02:40:50;16.13;;;2.13;;
82900;SDS011;72673;50.822;3.280;2023-09-19T02:43:16;13.90;;;2.03;;
82900;SDS011;72673;50.822;3.280;2023-09-19T02:45:42;11.93;;;1.98;;
82900;SDS011;72673;50.822;3.280;2023-09-19T02:48:07;12.80;;;2.08;;
82900;SDS011;72673;50.822;3.280;2023-09-19T02:50:33;15.45;;;2.30;;
82900;SDS011;72673;50.822;3.280;2023-09-19T02:52:59;13.15;;;2.20;;
82900;SDS011;72673;50.822;3.280;2023-09-19T02:55:24;11.63;;;2.47;;
82900;SDS011;72673;50.822;3.280;2023-09-19T02:57:53;10.43;;;2.60;;
82900;SDS011;72673;50.822;3.280;2023-09-19T03:00:19;9.65;;;1.73;;
82900;SDS011;72673;50.822;3.280;2023-09-19T03:02:55;17.90;;;2.53;;
82900;SDS011;72673;50.822;3.280;2023-09-19T03:05:21;12.10;;;1.90;;
82900;SDS011;72673;50.822;3.280;2023-09-19T03:07:48;15.00;;;2.72;;
82900;SDS011;72673;50.822;3.280;2023-09-19T03:10:16;20.73;;;2.55;;
82900;SDS011;72673;50.822;3.280;2023-09-19T03:12:42;15.05;;;2.70;;
82900;SDS011;72673;50.822;3.280;2023-09-19T03:15:08;13.82;;;1.90;;
82900;SDS011;72673;50.822;3.280;2023-09-19T03:17:34;11.75;;;2.50;;
82900;SDS011;72673;50.822;3.280;2023-09-19T03:20:01;22.65;;;3.25;;
82900;SDS011;72673;50.822;3.280;2023-09-19T03:22:27;16.52;;;2.53;;
82900;SDS011;72673;50.822;3.280;2023-09-19T03:24:53;15.52;;;2.42;;
82900;SDS011;72673;50.822;3.280;2023-09-19T03:27:19;13.73;;;2.40;;
82900;SDS011;72673;50.822;3.280;2023-09-19T03:29:45;21.38;;;2.45;;
82900;SDS011;72673;50.822;3.280;2023-09-19T03:32:11;19.30;;;2.20;;
82900;SDS011;72673;50.822;3.280;2023-09-19T03:34:37;11.43;;;1.83;;
82900;SDS011;72673;50.822;3.280;2023-09-19T03:37:08;16.90;;;2.40;;
82900;SDS011;72673;50.822;3.280;2023-09-19T03:39:34;12.65;;;2.08;;
82900;SDS011;72673;50.822;3.280;2023-09-19T03:42:00;15.38;;;2.33;;
82900;SDS011;72673;50.822;3.280;2023-09-19T03:44:26;19.58;;;2.40;;
82900;SDS011;72673;50.822;3.280;2023-09-19T03:46:52;21.10;;;2.50;;
82900;SDS011;72673;50.822;3.280;2023-09-19T03:49:17;10.73;;;1.75;;
82900;SDS011;72673;50.822;3.280;2023-09-19T03:51:44;23.95;;;2.50;;
82900;SDS011;72673;50.822;3.280;2023-09-19T03:54:09;17.67;;;2.03;;
82900;SDS011;72673;50.822;3.280;2023-09-19T03:56:35;16.08;;;1.98;;
82900;SDS011;72673;50.822;3.280;2023-09-19T03:59:00;15.93;;;2.83;;
82900;SDS011;72673;50.822;3.280;2023-09-19T04:01:26;16.40;;;3.03;;
82900;SDS011;72673;50.822;3.280;2023-09-19T04:03:53;10.95;;;2.00;;
82900;SDS011;72673;50.822;3.280;2023-09-19T04:06:18;13.95;;;1.80;;
82900;SDS011;72673;50.822;3.280;2023-09-19T04:08:44;12.27;;;1.92;;
82900;SDS011;72673;50.822;3.280;2023-09-19T04:11:11;16.23;;;2.25;;
82900;SDS011;72673;50.822;3.280;2023-09-19T04:13:36;17.30;;;2.33;;
82900;SDS011;72673;50.822;3.280;2023-09-19T04:16:02;16.42;;;2.63;;
82900;SDS011;72673;50.822;3.280;2023-09-19T04:18:32;19.60;;;2.45;;
82900;SDS011;72673;50.822;3.280;2023-09-19T04:21:02;16.95;;;2.40;;
82900;SDS011;72673;50.822;3.280;2023-09-19T04:23:29;16.85;;;2.53;;
82900;SDS011;72673;50.822;3.280;2023-09-19T04:25:54;13.52;;;2.45;;
82900;SDS011;72673;50.822;3.280;2023-09-19T04:28:20;14.48;;;2.13;;
82900;SDS011;72673;50.822;3.280;2023-09-19T04:30:46;19.90;;;2.60;;
82900;SDS011;72673;50.822;3.280;2023-09-19T04:33:11;19.73;;;2.60;;
82900;SDS011;72673;50.822;3.280;2023-09-19T04:35:39;14.93;;;2.53;;
82900;SDS011;72673;50.822;3.280;2023-09-19T04:38:07;16.20;;;1.80;;
82900;SDS011;72673;50.822;3.280;2023-09-19T04:40:33;16.50;;;2.17;;
82900;SDS011;72673;50.822;3.280;2023-09-19T04:42:59;20.13;;;2.55;;
82900;SDS011;72673;50.822;3.280;2023-09-19T04:45:25;19.58;;;2.10;;
82900;SDS011;72673;50.822;3.280;2023-09-19T04:47:52;13.98;;;2.22;;
82900;SDS011;72673;50.822;3.280;2023-09-19T04:50:18;19.67;;;2.33;;
82900;SDS011;72673;50.822;3.280;2023-09-19T04:52:46;11.23;;;2.08;;
82900;SDS011;72673;50.822;3.280;2023-09-19T04:55:16;12.38;;;2.47;;
82900;SDS011;72673;50.822;3.280;2023-09-19T05:00:14;16.80;;;2.13;;
82900;SDS011;72673;50.822;3.280;2023-09-19T05:02:42;12.50;;;2.13;;
82900;SDS011;72673;50.822;3.280;2023-09-19T05:05:08;18.08;;;2.10;;
82900;SDS011;72673;50.822;3.280;2023-09-19T05:07:40;12.32;;;2.00;;
82900;SDS011;72673;50.822;3.280;2023-09-19T05:10:06;16.27;;;2.22;;
82900;SDS011;72673;50.822;3.280;2023-09-19T05:12:36;20.75;;;2.35;;
82900;SDS011;72673;50.822;3.280;2023-09-19T05:15:02;21.23;;;2.38;;
82900;SDS011;72673;50.822;3.280;2023-09-19T05:17:29;16.75;;;2.15;;
82900;SDS011;72673;50.822;3.280;2023-09-19T05:19:55;11.75;;;2.33;;
82900;SDS011;72673;50.822;3.280;2023-09-19T05:22:20;19.73;;;2.88;;
82900;SDS011;72673;50.822;3.280;2023-09-19T05:24:46;12.73;;;1.77;;
82900;SDS011;72673;50.822;3.280;2023-09-19T05:27:13;15.80;;;2.20;;
82900;SDS011;72673;50.822;3.280;2023-09-19T05:29:41;9.90;;;2.03;;
82900;SDS011;72673;50.822;3.280;2023-09-19T05:32:10;19.23;;;2.42;;
82900;SDS011;72673;50.822;3.280;2023-09-19T05:34:36;11.60;;;1.58;;
82900;SDS011;72673;50.822;3.280;2023-09-19T05:37:03;16.23;;;2.70;;
82900;SDS011;72673;50.822;3.280;2023-09-19T05:39:32;14.77;;;2.35;;
82900;SDS011;72673;50.822;3.280;2023-09-19T05:41:58;10.38;;;1.58;;
82900;SDS011;72673;50.822;3.280;2023-09-19T05:44:25;17.17;;;2.70;;
82900;SDS011;72673;50.822;3.280;2023-09-19T05:46:50;15.88;;;2.42;;
82900;SDS011;72673;50.822;3.280;2023-09-19T05:49:17;10.43;;;1.38;;
82900;SDS011;72673;50.822;3.280;2023-09-19T05:51:42;17.27;;;2.28;;
82900;SDS011;72673;50.822;3.280;2023-09-19T05:54:08;15.70;;;2.03;;
82900;SDS011;72673;50.822;3.280;2023-09-19T05:56:34;12.23;;;2.03;;
82900;SDS011;72673;50.822;3.280;2023-09-19T05:58:59;12.93;;;2.17;;
82900;SDS011;72673;50.822;3.280;2023-09-19T06:01:25;19.20;;;2.53;;
82900;SDS011;72673;50.822;3.280;2023-09-19T06:03:52;10.90;;;1.90;;
82900;SDS011;72673;50.822;3.280;2023-09-19T06:06:18;17.58;;;2.38;;
82900;SDS011;72673;50.822;3.280;2023-09-19T06:08:44;17.85;;;2.70;;
82900;SDS011;72673;50.822;3.280;2023-09-19T06:11:10;8.70;;;1.75;;
82900;SDS011;72673;50.822;3.280;2023-09-19T06:13:36;16.67;;;2.17;;
82900;SDS011;72673;50.822;3.280;2023-09-19T06:16:04;15.52;;;2.00;;
82900;SDS011;72673;50.822;3.280;2023-09-19T06:18:30;12.82;;;1.95;;
82900;SDS011;72673;50.822;3.280;2023-09-19T06:20:58;17.73;;;2.30;;
82900;SDS011;72673;50.822;3.280;2023-09-19T06:23:24;11.43;;;2.40;;
82900;SDS011;72673;50.822;3.280;2023-09-19T06:25:51;16.00;;;2.20;;
82900;SDS011;72673;50.822;3.280;2023-09-19T06:28:18;13.73;;;2.03;;
82900;SDS011;72673;50.822;3.280;2023-09-19T06:30:49;16.40;;;2.35;;
82900;SDS011;72673;50.822;3.280;2023-09-19T06:33:14;23.23;;;3.33;;
82900;SDS011;72673;50.822;3.280;2023-09-19T06:35:40;20.85;;;2.10;;
82900;SDS011;72673;50.822;3.280;2023-09-19T06:38:07;14.90;;;1.90;;
82900;SDS011;72673;50.822;3.280;2023-09-19T06:40:33;12.90;;;2.13;;
82900;SDS011;72673;50.822;3.280;2023-09-19T06:42:59;11.00;;;2.15;;
82900;SDS011;72673;50.822;3.280;2023-09-19T06:45:26;14.18;;;1.85;;
82900;SDS011;72673;50.822;3.280;2023-09-19T06:47:52;17.75;;;2.40;;
82900;SDS011;72673;50.822;3.280;2023-09-19T06:50:20;13.98;;;2.10;;
82900;SDS011;72673;50.822;3.280;2023-09-19T06:52:50;18.13;;;1.90;;
82900;SDS011;72673;50.822;3.280;2023-09-19T06:55:19;13.37;;;1.90;;
82900;SDS011;72673;50.822;3.280;2023-09-19T06:57:46;13.20;;;2.15;;
82900;SDS011;72673;50.822;3.280;2023-09-19T07:00:13;15.45;;;2.42;;
82900;SDS011;72673;50.822;3.280;2023-09-19T07:03:06;10.90;;;1.80;;
82900;SDS011;72673;50.822;3.280;2023-09-19T07:05:36;17.05;;;2.60;;
82900;SDS011;72673;50.822;3.280;2023-09-19T07:08:02;19.17;;;2.60;;
82900;SDS011;72673;50.822;3.280;2023-09-19T07:10:29;13.30;;;2.22;;
82900;SDS011;72673;50.822;3.280;2023-09-19T07:15:27;13.38;;;2.10;;
82900;SDS011;72673;50.822;3.280;2023-09-19T07:17:55;15.25;;;2.20;;
82900;SDS011;72673;50.822;3.280;2023-09-19T07:20:21;11.50;;;1.92;;
82900;SDS011;72673;50.822;3.280;2023-09-19T07:22:48;17.42;;;2.10;;
82900;SDS011;72673;50.822;3.280;2023-09-19T07:25:15;9.57;;;1.88;;
82900;SDS011;72673;50.822;3.280;2023-09-19T07:27:41;15.50;;;2.05;;
82900;SDS011;72673;50.822;3.280;2023-09-19T07:30:08;12.75;;;2.00;;
82900;SDS011;72673;50.822;3.280;2023-09-19T07:32:34;19.25;;;2.20;;
82900;SDS011;72673;50.822;3.280;2023-09-19T07:35:01;7.65;;;1.73;;
82900;SDS011;72673;50.822;3.280;2023-09-19T07:37:29;6.85;;;1.60;;
82900;SDS011;72673;50.822;3.280;2023-09-19T07:39:56;9.50;;;1.63;;
82900;SDS011;72673;50.822;3.280;2023-09-19T07:42:22;19.02;;;2.28;;
82900;SDS011;72673;50.822;3.280;2023-09-19T07:44:47;19.48;;;2.15;;
82900;SDS011;72673;50.822;3.280;2023-09-19T07:47:15;15.05;;;3.05;;
82900;SDS011;72673;50.822;3.280;2023-09-19T07:49:42;12.88;;;2.03;;
82900;SDS011;72673;50.822;3.280;2023-09-19T07:52:08;16.17;;;1.90;;
82900;SDS011;72673;50.822;3.280;2023-09-19T07:54:35;13.75;;;2.03;;
82900;SDS011;72673;50.822;3.280;2023-09-19T07:57:03;19.60;;;2.67;;
82900;SDS011;72673;50.822;3.280;2023-09-19T07:59:29;12.48;;;1.80;;
82900;SDS011;72673;50.822;3.280;2023-09-19T08:01:55;14.13;;;2.13;;
82900;SDS011;72673;50.822;3.280;2023-09-19T08:04:20;13.65;;;1.70;;
82900;SDS011;72673;50.822;3.280;2023-09-19T08:06:46;13.82;;;2.25;;
82900;SDS011;72673;50.822;3.280;2023-09-19T08:09:12;10.93;;;1.73;;
82900;SDS011;72673;50.822;3.280;2023-09-19T08:11:42;12.52;;;1.80;;
82900;SDS011;72673;50.822;3.280;2023-09-19T08:14:07;14.90;;;1.67;;
82900;SDS011;72673;50.822;3.280;2023-09-19T08:16:33;12.13;;;1.80;;
82900;SDS011;72673;50.822;3.280;2023-09-19T08:18:59;17.95;;;2.22;;
82900;SDS011;72673;50.822;3.280;2023-09-19T08:21:24;29.77;;;2.88;;
82900;SDS011;72673;50.822;3.280;2023-09-19T08:23:52;22.48;;;2.08;;
82900;SDS011;72673;50.822;3.280;2023-09-19T08:26:18;12.73;;;2.20;;
82900;SDS011;72673;50.822;3.280;2023-09-19T08:28:44;13.63;;;2.08;;
82900;SDS011;72673;50.822;3.280;2023-09-19T08:31:10;14.40;;;2.28;;
82900;SDS011;72673;50.822;3.280;2023-09-19T08:33:36;14.48;;;2.63;;
82900;SDS011;72673;50.822;3.280;2023-09-19T08:36:05;27.83;;;3.55;;
82900;SDS011;72673;50.822;3.280;2023-09-19T08:38:32;11.50;;;2.00;;
82900;SDS011;72673;50.822;3.280;2023-09-19T08:40:59;12.70;;;1.50;;
82900;SDS011;72673;50.822;3.280;2023-09-19T08:43:29;11.00;;;1.42;;
82900;SDS011;72673;50.822;3.280;2023-09-19T08:46:15;16.45;;;2.10;;
82900;SDS011;72673;50.822;3.280;2023-09-19T08:48:46;11.30;;;1.50;;
82900;SDS011;72673;50.822;3.280;2023-09-19T08:51:27;10.33;;;1.87;;
82900;SDS011;72673;50.822;3.280;2023-09-19T08:56:30;14.52;;;1.77;;
82900;SDS011;72673;50.822;3.280;2023-09-19T08:59:02;12.13;;;2.00;;
82900;SDS011;72673;50.822;3.280;2023-09-19T09:04:06;9.30;;;0.95;;
82900;SDS011;72673;50.822;3.280;2023-09-19T09:06:34;10.68;;;1.40;;
82900;SDS011;72673;50.822;3.280;2023-09-19T09:09:01;10.55;;;1.77;;
82900;SDS011;72673;50.822;3.280;2023-09-19T09:11:28;10.55;;;1.58;;
82900;SDS011;72673;50.822;3.280;2023-09-19T09:13:53;9.93;;;1.92;;
82900;SDS011;72673;50.822;3.280;2023-09-19T09:16:20;7.00;;;1.17;;
82900;SDS011;72673;50.822;3.280;2023-09-19T09:18:46;8.20;;;1.55;;
82900;SDS011;72673;50.822;3.280;2023-09-19T09:21:17;6.03;;;1.10;;
82900;SDS011;72673;50.822;3.280;2023-09-19T09:23:44;11.15;;;1.75;;
82900;SDS011;72673;50.822;3.280;2023-09-19T09:26:10;12.02;;;1.67;;
82900;SDS011;72673;50.822;3.280;2023-09-19T09:28:38;10.05;;;1.58;;
82900;SDS011;72673;50.822;3.280;2023-09-19T09:31:21;11.73;;;1.42;;
82900;SDS011;72673;50.822;3.280;2023-09-19T09:33:54;10.68;;;1.40;;
82900;SDS011;72673;50.822;3.280;2023-09-19T09:36:33;7.85;;;1.00;;
82900;SDS011;72673;50.822;3.280;2023-09-19T09:39:04;6.05;;;1.52;;
82900;SDS011;72673;50.822;3.280;2023-09-19T09:41:50;6.32;;;0.82;;
82900;SDS011;72673;50.822;3.280;2023-09-19T09:44:16;7.75;;;1.20;;
82900;SDS011;72673;50.822;3.280;2023-09-19T09:46:44;8.90;;;1.52;;
82900;SDS011;72673;50.822;3.280;2023-09-19T09:49:23;10.93;;;1.42;;
82900;SDS011;72673;50.822;3.280;2023-09-19T09:52:12;8.68;;;1.15;;
82900;SDS011;72673;50.822;3.280;2023-09-19T09:55:02;4.43;;;0.90;;
82900;SDS011;72673;50.822;3.280;2023-09-19T09:57:32;7.97;;;0.90;;
82900;SDS011;72673;50.822;3.280;2023-09-19T09:59:59;7.72;;;1.17;;
82900;SDS011;72673;50.822;3.280;2023-09-19T10:02:37;2.60;;;0.82;;
82900;SDS011;72673;50.822;3.280;2023-09-19T10:07:46;6.78;;;1.05;;
82900;SDS011;72673;50.822;3.280;2023-09-19T10:10:33;4.63;;;0.80;;
82900;SDS011;72673;50.822;3.280;2023-09-19T10:13:11;5.50;;;1.17;;
82900;SDS011;72673;50.822;3.280;2023-09-19T10:15:40;6.80;;;0.68;;
82900;SDS011;72673;50.822;3.280;2023-09-19T10:18:14;10.32;;;1.20;;
82900;SDS011;72673;50.822;3.280;2023-09-19T10:20:44;6.43;;;0.80;;
82900;SDS011;72673;50.822;3.280;2023-09-19T10:23:11;5.25;;;1.08;;
82900;SDS011;72673;50.822;3.280;2023-09-19T10:25:38;5.60;;;0.90;;
82900;SDS011;72673;50.822;3.280;2023-09-19T10:28:06;3.22;;;0.80;;
82900;SDS011;72673;50.822;3.280;2023-09-19T10:30:44;3.10;;;0.88;;
82900;SDS011;72673;50.822;3.280;2023-09-19T10:33:12;5.90;;;0.85;;
82900;SDS011;72673;50.822;3.280;2023-09-19T10:35:40;6.82;;;0.80;;
82900;SDS011;72673;50.822;3.280;2023-09-19T10:38:11;5.82;;;0.70;;
82900;SDS011;72673;50.822;3.280;2023-09-19T10:40:39;6.45;;;0.85;;
82900;SDS011;72673;50.822;3.280;2023-09-19T10:43:11;5.75;;;0.77;;
82900;SDS011;72673;50.822;3.280;2023-09-19T10:45:38;8.27;;;1.13;;
82900;SDS011;72673;50.822;3.280;2023-09-19T10:48:05;6.20;;;0.90;;
82900;SDS011;72673;50.822;3.280;2023-09-19T10:50:36;4.55;;;1.00;;
82900;SDS011;72673;50.822;3.280;2023-09-19T10:53:25;3.70;;;1.00;;
82900;SDS011;72673;50.822;3.280;2023-09-19T10:55:57;4.28;;;0.77;;
82900;SDS011;72673;50.822;3.280;2023-09-19T10:58:28;7.43;;;0.85;;
82900;SDS011;72673;50.822;3.280;2023-09-19T11:00:59;3.13;;;0.60;;
82900;SDS011;72673;50.822;3.280;2023-09-19T11:03:37;11.05;;;1.75;;
82900;SDS011;72673;50.822;3.280;2023-09-19T11:06:12;6.95;;;0.90;;
82900;SDS011;72673;50.822;3.280;2023-09-19T11:08:51;6.93;;;1.23;;
82900;SDS011;72673;50.822;3.280;2023-09-19T11:17:21;7.30;;;1.10;;
82900;SDS011;72673;50.822;3.280;2023-09-19T11:30:52;4.93;;;0.80;;
82900;SDS011;72673;50.822;3.280;2023-09-19T11:43:49;5.53;;;1.00;;
82900;SDS011;72673;50.822;3.280;2023-09-19T11:46:16;8.27;;;1.40;;
82900;SDS011;72673;50.822;3.280;2023-09-19T11:48:47;4.60;;;1.00;;
82900;SDS011;72673;50.822;3.280;2023-09-19T11:51:23;7.25;;;1.33;;
82900;SDS011;72673;50.822;3.280;2023-09-19T11:53:56;5.45;;;1.02;;
82900;SDS011;72673;50.822;3.280;2023-09-19T11:56:25;2.05;;;0.73;;
82900;SDS011;72673;50.822;3.280;2023-09-19T11:58:56;6.50;;;1.15;;
82900;SDS011;72673;50.822;3.280;2023-09-19T12:01:30;5.43;;;0.80;;
82900;SDS011;72673;50.822;3.280;2023-09-19T12:03:57;2.97;;;0.80;;
82900;SDS011;72673;50.822;3.280;2023-09-19T12:06:24;5.80;;;1.00;;
82900;SDS011;72673;50.822;3.280;2023-09-19T12:08:52;5.43;;;1.33;;
82900;SDS011;72673;50.822;3.280;2023-09-19T12:11:28;3.95;;;0.65;;
82900;SDS011;72673;50.822;3.280;2023-09-19T12:13:58;7.68;;;1.20;;
82900;SDS011;72673;50.822;3.280;2023-09-19T12:16:26;5.13;;;1.20;;
82900;SDS011;72673;50.822;3.280;2023-09-19T12:18:55;5.82;;;1.30;;
82900;SDS011;72673;50.822;3.280;2023-09-19T12:24:11;3.15;;;1.02;;
82900;SDS011;72673;50.822;3.280;2023-09-19T12:26:44;7.03;;;1.10;;
82900;SDS011;72673;50.822;3.280;2023-09-19T12:29:18;8.45;;;1.17;;
82900;SDS011;72673;50.822;3.280;2023-09-19T12:31:54;5.35;;;1.20;;
82900;SDS011;72673;50.822;3.280;2023-09-19T12:34:27;4.80;;;1.00;;
82900;SDS011;72673;50.822;3.280;2023-09-19T12:37:12;5.85;;;1.02;;
82900;SDS011;72673;50.822;3.280;2023-09-19T12:40:03;6.18;;;1.05;;
82900;SDS011;72673;50.822;3.280;2023-09-19T12:42:47;5.70;;;1.20;;
82900;SDS011;72673;50.822;3.280;2023-09-19T12:45:14;7.03;;;0.93;;
82900;SDS011;72673;50.822;3.280;2023-09-19T12:53:34;8.68;;;1.80;;
82900;SDS011;72673;50.822;3.280;2023-09-19T12:56:05;3.00;;;0.90;;
82900;SDS011;72673;50.822;3.280;2023-09-19T12:58:33;7.47;;;1.38;;
82900;SDS011;72673;50.822;3.280;2023-09-19T13:01:00;5.00;;;0.98;;
82900;SDS011;72673;50.822;3.280;2023-09-19T13:03:27;6.72;;;1.35;;
82900;SDS011;72673;50.822;3.280;2023-09-19T13:13:38;5.90;;;1.20;;
82900;SDS011;72673;50.822;3.280;2023-09-19T13:16:06;6.93;;;1.30;;
82900;SDS011;72673;50.822;3.280;2023-09-19T13:18:46;6.65;;;1.30;;
82900;SDS011;72673;50.822;3.280;2023-09-19T13:21:12;5.18;;;1.15;;
82900;SDS011;72673;50.822;3.280;2023-09-19T13:24:17;2.97;;;1.00;;
82900;SDS011;72673;50.822;3.280;2023-09-19T13:26:43;9.43;;;1.30;;
82900;SDS011;72673;50.822;3.280;2023-09-19T13:29:08;6.10;;;1.33;;
82900;SDS011;72673;50.822;3.280;2023-09-19T13:31:34;6.88;;;1.30;;
82900;SDS011;72673;50.822;3.280;2023-09-19T13:33:59;7.75;;;1.70;;
82900;SDS011;72673;50.822;3.280;2023-09-19T13:36:25;7.60;;;1.40;;
82900;SDS011;72673;50.822;3.280;2023-09-19T13:38:50;7.10;;;1.52;;
82900;SDS011;72673;50.822;3.280;2023-09-19T13:41:18;9.75;;;1.88;;
82900;SDS011;72673;50.822;3.280;2023-09-19T13:43:43;8.05;;;1.35;;
82900;SDS011;72673;50.822;3.280;2023-09-19T13:48:41;7.45;;;1.95;;
82900;SDS011;72673;50.822;3.280;2023-09-19T13:51:06;6.25;;;1.40;;
82900;SDS011;72673;50.822;3.280;2023-09-19T13:53:32;14.52;;;1.45;;
82900;SDS011;72673;50.822;3.280;2023-09-19T13:55:57;7.43;;;1.40;;
82900;SDS011;72673;50.822;3.280;2023-09-19T13:58:23;8.65;;;1.48;;
82900;SDS011;72673;50.822;3.280;2023-09-19T14:00:49;8.75;;;1.50;;
82900;SDS011;72673;50.822;3.280;2023-09-19T14:03:15;8.25;;;1.40;;
82900;SDS011;72673;50.822;3.280;2023-09-19T14:05:41;5.35;;;1.30;;
82900;SDS011;72673;50.822;3.280;2023-09-19T14:08:07;6.95;;;1.50;;
82900;SDS011;72673;50.822;3.280;2023-09-19T14:10:33;8.40;;;1.67;;
82900;SDS011;72673;50.822;3.280;2023-09-19T14:13:00;10.25;;;1.92;;
82900;SDS011;72673;50.822;3.280;2023-09-19T14:15:26;8.30;;;1.40;;
82900;SDS011;72673;50.822;3.280;2023-09-19T14:17:56;9.57;;;1.30;;
82900;SDS011;72673;50.822;3.280;2023-09-19T14:20:22;10.02;;;1.73;;
82900;SDS011;72673;50.822;3.280;2023-09-19T14:22:48;6.80;;;1.33;;
82900;SDS011;72673;50.822;3.280;2023-09-19T14:25:14;10.38;;;2.03;;
82900;SDS011;72673;50.822;3.280;2023-09-19T14:27:39;12.25;;;1.88;;
82900;SDS011;72673;50.822;3.280;2023-09-19T14:30:06;8.20;;;1.65;;
82900;SDS011;72673;50.822;3.280;2023-09-19T14:32:34;7.78;;;1.55;;
82900;SDS011;72673;50.822;3.280;2023-09-19T14:35:01;5.68;;;1.40;;
82900;SDS011;72673;50.822;3.280;2023-09-19T14:37:27;6.47;;;1.58;;
82900;SDS011;72673;50.822;3.280;2023-09-19T14:39:53;10.38;;;1.63;;
82900;SDS011;72673;50.822;3.280;2023-09-19T14:42:19;4.50;;;1.35;;
82900;SDS011;72673;50.822;3.280;2023-09-19T14:44:44;9.95;;;1.45;;
82900;SDS011;72673;50.822;3.280;2023-09-19T14:47:12;11.52;;;2.20;;
82900;SDS011;72673;50.822;3.280;2023-09-19T14:49:38;11.45;;;1.77;;
82900;SDS011;72673;50.822;3.280;2023-09-19T14:52:06;9.48;;;1.88;;
82900;SDS011;72673;50.822;3.280;2023-09-19T14:54:33;4.43;;;1.48;;
82900;SDS011;72673;50.822;3.280;2023-09-19T14:56:59;10.48;;;2.00;;
82900;SDS011;72673;50.822;3.280;2023-09-19T14:59:33;11.32;;;1.75;;
82900;SDS011;72673;50.822;3.280;2023-09-19T15:02:02;7.70;;;2.07;;
82900;SDS011;72673;50.822;3.280;2023-09-19T15:04:29;9.10;;;1.75;;
82900;SDS011;72673;50.822;3.280;2023-09-19T15:06:55;10.27;;;2.05;;
82900;SDS011;72673;50.822;3.280;2023-09-19T15:09:23;8.48;;;1.73;;
82900;SDS011;72673;50.822;3.280;2023-09-19T15:11:54;9.40;;;2.20;;
82900;SDS011;72673;50.822;3.280;2023-09-19T15:16:47;7.53;;;1.67;;
82900;SDS011;72673;50.822;3.280;2023-09-19T15:19:13;9.73;;;1.67;;
82900;SDS011;72673;50.822;3.280;2023-09-19T15:21:40;8.32;;;2.20;;
82900;SDS011;72673;50.822;3.280;2023-09-19T15:24:05;9.68;;;1.80;;
82900;SDS011;72673;50.822;3.280;2023-09-19T15:26:35;6.05;;;1.63;;
82900;SDS011;72673;50.822;3.280;2023-09-19T15:29:09;9.00;;;1.67;;
82900;SDS011;72673;50.822;3.280;2023-09-19T15:31:37;8.73;;;1.73;;
82900;SDS011;72673;50.822;3.280;2023-09-19T15:34:04;6.95;;;1.65;;
82900;SDS011;72673;50.822;3.280;2023-09-19T15:36:32;10.18;;;2.00;;
82900;SDS011;72673;50.822;3.280;2023-09-19T15:41:24;8.23;;;1.63;;
82900;SDS011;72673;50.822;3.280;2023-09-19T15:43:51;9.52;;;1.80;;
82900;SDS011;72673;50.822;3.280;2023-09-19T15:46:17;8.10;;;1.65;;
82900;SDS011;72673;50.822;3.280;2023-09-19T15:48:44;11.07;;;2.42;;
82900;SDS011;72673;50.822;3.280;2023-09-19T15:51:10;10.07;;;2.72;;
82900;SDS011;72673;50.822;3.280;2023-09-19T15:53:46;8.30;;;2.15;;
82900;SDS011;72673;50.822;3.280;2023-09-19T15:56:17;6.50;;;2.00;;
82900;SDS011;72673;50.822;3.280;2023-09-19T15:58:44;7.47;;;2.10;;
82900;SDS011;72673;50.822;3.280;2023-09-19T16:01:10;12.45;;;2.22;;
82900;SDS011;72673;50.822;3.280;2023-09-19T16:03:40;11.45;;;2.20;;
82900;SDS011;72673;50.822;3.280;2023-09-19T16:06:15;12.02;;;2.33;;
82900;SDS011;72673;50.822;3.280;2023-09-19T16:08:45;9.90;;;2.42;;
82900;SDS011;72673;50.822;3.280;2023-09-19T16:11:12;9.80;;;2.42;;